Time;durP1;ratioP1;P1;durP2;ratioP2;P2;SDS_P1;SDS_P2;PMS_P1;PMS_P2;Temp;Humidity;BMP_temperature;BMP_pressure;BME280_temperature;BME280_humidity;BME280_pressure;Samples;Min_cycle;Max_cycle;Signal;HPM_P1;HPM_P2
2023/04/17 00:01:30;;;;;;;56.77;36.30;;;;;;;;;;7367751;19;20301;-79
2023/04/17 00:03:56;;;;;;;51.55;35.80;;;;;;;;;;7378601;19;20247;-78
2023/04/17 00:06:22;;;;;;;54.95;37.47;;;;;;;;;;7378581;19;20003;-79
2023/04/17 00:08:48;;;;;;;53.47;37.22;;;;;;;;;;7374096;19;20074;-79
2023/04/17 00:11:13;;;;;;;50.95;34.75;;;;;;;;;;7367505;19;20504;-78
2023/04/17 00:13:38;;;;;;;52.20;33.67;;;;;;;;;;7353558;19;19994;-78
2023/04/17 00:16:03;;;;;;;48.50;33.93;;;;;;;;;;7363276;19;20313;-78
2023/04/17 00:18:34;;;;;;;49.22;33.47;;;;;;;;;;7367682;19;20267;-79
2023/04/17 00:20:59;;;;;;;49.88;34.30;;;;;;;;;;7349745;19;19999;-78
2023/04/17 00:23:25;;;;;;;47.28;33.05;;;;;;;;;;7364322;19;19995;-78
2023/04/17 00:25:50;;;;;;;44.08;31.50;;;;;;;;;;7369948;19;20005;-79
2023/04/17 00:28:15;;;;;;;45.63;30.70;;;;;;;;;;7367030;19;19995;-78
2023/04/17 00:30:40;;;;;;;38.83;27.50;;;;;;;;;;7368713;19;20826;-79
2023/04/17 00:33:05;;;;;;;33.97;24.20;;;;;;;;;;7360039;19;20007;-78
2023/04/17 00:35:30;;;;;;;36.63;25.37;;;;;;;;;;7356106;19;20009;-78
2023/04/17 00:37:56;;;;;;;33.28;23.63;;;;;;;;;;7368218;19;20287;-78
2023/04/17 00:40:21;;;;;;;33.15;25.05;;;;;;;;;;7368435;19;20102;-79
2023/04/17 00:42:52;;;;;;;35.60;25.50;;;;;;;;;;7362730;19;20615;-79
2023/04/17 00:45:18;;;;;;;30.67;22.35;;;;;;;;;;7360253;19;20568;-79
2023/04/17 00:47:43;;;;;;;28.38;21.23;;;;;;;;;;7367810;19;20365;-79
2023/04/17 00:50:09;;;;;;;28.73;23.00;;;;;;;;;;7361288;19;19999;-79
2023/04/17 00:52:34;;;;;;;27.48;21.05;;;;;;;;;;7369667;19;20242;-79
2023/04/17 00:54:59;;;;;;;29.38;20.90;;;;;;;;;;7363130;19;20415;-79
2023/04/17 00:57:25;;;;;;;28.23;21.00;;;;;;;;;;7365743;19;20355;-78
2023/04/17 00:59:50;;;;;;;28.05;19.92;;;;;;;;;;7364827;19;20046;-78
2023/04/17 01:02:16;;;;;;;25.47;19.43;;;;;;;;;;7361346;19;20466;-78
2023/04/17 01:04:41;;;;;;;26.85;18.98;;;;;;;;;;7365443;19;20262;-79
2023/04/17 01:07:07;;;;;;;28.02;20.85;;;;;;;;;;7366288;19;20086;-79
2023/04/17 01:09:32;;;;;;;29.98;20.42;;;;;;;;;;7354988;19;19999;-78
2023/04/17 01:12:16;;;;;;;30.77;20.67;;;;;;;;;;7362664;19;20038;-78
2023/04/17 01:14:41;;;;;;;30.45;21.67;;;;;;;;;;7366882;19;20493;-79
2023/04/17 01:17:06;;;;;;;29.93;21.97;;;;;;;;;;7365623;19;20009;-78
2023/04/17 01:19:32;;;;;;;32.75;22.08;;;;;;;;;;7328451;19;20835;-78
2023/04/17 01:21:57;;;;;;;31.63;22.38;;;;;;;;;;7295935;19;20462;-78
2023/04/17 01:24:22;;;;;;;36.03;24.17;;;;;;;;;;7305472;19;20137;-78
2023/04/17 01:26:47;;;;;;;38.50;24.92;;;;;;;;;;7299166;19;20360;-76
2023/04/17 01:29:12;;;;;;;40.70;26.50;;;;;;;;;;7295028;19;20006;-77
2023/04/17 01:31:37;;;;;;;37.90;26.50;;;;;;;;;;7302030;19;19995;-77
2023/04/17 01:34:03;;;;;;;38.70;25.37;;;;;;;;;;7304625;19;20002;-77
2023/04/17 01:36:28;;;;;;;38.93;26.47;;;;;;;;;;7299761;19;20604;-76
2023/04/17 01:38:53;;;;;;;41.58;27.52;;;;;;;;;;7303828;19;20246;-76
2023/04/17 01:41:18;;;;;;;37.73;25.97;;;;;;;;;;7295452;19;20378;-77
2023/04/17 01:43:45;;;;;;;42.90;27.52;;;;;;;;;;7299916;19;20468;-79
2023/04/17 01:46:11;;;;;;;38.30;25.70;;;;;;;;;;7300631;19;20350;-79
2023/04/17 01:48:36;;;;;;;42.90;28.02;;;;;;;;;;7295721;19;20018;-75
2023/04/17 01:51:01;;;;;;;47.22;29.50;;;;;;;;;;7298248;19;20033;-78
2023/04/17 01:53:31;;;;;;;51.40;32.72;;;;;;;;;;7301792;19;20258;-79
2023/04/17 01:55:56;;;;;;;52.47;32.53;;;;;;;;;;7298082;19;20380;-79
2023/04/17 01:58:21;;;;;;;51.90;31.10;;;;;;;;;;7303626;19;20324;-78
2023/04/17 02:00:47;;;;;;;46.60;30.65;;;;;;;;;;7298166;19;20045;-78
2023/04/17 02:03:12;;;;;;;43.05;28.70;;;;;;;;;;7298013;19;20149;-79
2023/04/17 02:05:37;;;;;;;42.08;25.73;;;;;;;;;;7297635;19;20344;-79
2023/04/17 02:08:03;;;;;;;41.90;27.55;;;;;;;;;;7297673;19;20029;-76
2023/04/17 02:10:29;;;;;;;42.45;26.30;;;;;;;;;;7296886;19;20209;-79
2023/04/17 02:12:54;;;;;;;43.10;25.88;;;;;;;;;;7298853;19;20472;-78
2023/04/17 02:15:19;;;;;;;38.67;25.17;;;;;;;;;;7298620;19;19999;-78
2023/04/17 02:17:45;;;;;;;43.78;26.17;;;;;;;;;;7298267;19;20627;-78
2023/04/17 02:20:10;;;;;;;39.83;26.33;;;;;;;;;;7340899;19;20002;-78
2023/04/17 02:22:35;;;;;;;39.22;25.00;;;;;;;;;;7363336;19;20010;-78
2023/04/17 02:25:00;;;;;;;42.63;25.03;;;;;;;;;;7364372;19;20002;-77
2023/04/17 02:27:25;;;;;;;38.92;26.17;;;;;;;;;;7367265;19;20243;-78
2023/04/17 02:29:51;;;;;;;37.93;22.93;;;;;;;;;;7366517;19;20009;-77
2023/04/17 02:32:16;;;;;;;41.80;25.60;;;;;;;;;;7363184;19;20244;-78
2023/04/17 02:34:41;;;;;;;38.40;24.37;;;;;;;;;;7365241;19;19998;-78
2023/04/17 02:37:06;;;;;;;37.67;24.33;;;;;;;;;;7357084;19;20249;-78
2023/04/17 02:39:32;;;;;;;37.42;23.55;;;;;;;;;;7370825;19;19999;-78
2023/04/17 02:41:57;;;;;;;35.90;23.00;;;;;;;;;;7374640;19;20029;-77
2023/04/17 02:44:23;;;;;;;45.07;26.37;;;;;;;;;;7374051;19;20430;-78
2023/04/17 02:46:48;;;;;;;39.20;24.70;;;;;;;;;;7371150;19;20247;-78
2023/04/17 02:49:13;;;;;;;44.50;27.10;;;;;;;;;;7367136;19;20010;-77
2023/04/17 02:51:38;;;;;;;41.07;26.63;;;;;;;;;;7376434;19;20007;-78
2023/04/17 02:54:03;;;;;;;45.70;28.23;;;;;;;;;;7372954;19;20242;-76
2023/04/17 02:56:28;;;;;;;52.47;30.37;;;;;;;;;;7374501;19;19991;-77
2023/04/17 02:58:54;;;;;;;50.00;27.90;;;;;;;;;;7367723;19;20259;-78
2023/04/17 03:01:20;;;;;;;44.60;27.97;;;;;;;;;;7364465;19;20870;-78
2023/04/17 03:03:46;;;;;;;46.40;27.70;;;;;;;;;;7373372;19;20671;-78
2023/04/17 03:06:11;;;;;;;46.70;28.92;;;;;;;;;;7373552;19;20003;-78
2023/04/17 03:08:37;;;;;;;49.27;30.10;;;;;;;;;;7376207;19;19997;-78
2023/04/17 03:11:02;;;;;;;49.13;29.50;;;;;;;;;;7373609;19;20268;-78
2023/04/17 03:13:27;;;;;;;48.47;30.75;;;;;;;;;;7369802;19;20118;-78
2023/04/17 03:15:53;;;;;;;53.70;31.47;;;;;;;;;;7375495;19;20006;-77
2023/04/17 03:18:18;;;;;;;56.88;34.08;;;;;;;;;;7371934;19;20664;-77
2023/04/17 03:20:43;;;;;;;48.95;30.65;;;;;;;;;;7369622;19;20308;-77
2023/04/17 03:23:08;;;;;;;52.50;31.20;;;;;;;;;;7373296;19;20247;-78
2023/04/17 03:25:33;;;;;;;57.13;32.57;;;;;;;;;;7373131;19;19991;-78
2023/04/17 03:27:58;;;;;;;54.05;31.90;;;;;;;;;;7370746;19;20320;-80
2023/04/17 03:30:24;;;;;;;59.00;32.67;;;;;;;;;;7372865;19;20371;-79
2023/04/17 03:32:49;;;;;;;55.35;31.08;;;;;;;;;;7375528;19;20263;-79
2023/04/17 03:35:15;;;;;;;58.25;31.95;;;;;;;;;;7370039;19;20021;-79
2023/04/17 03:37:40;;;;;;;56.13;31.45;;;;;;;;;;7376240;19;20489;-79
2023/04/17 03:40:06;;;;;;;54.33;32.10;;;;;;;;;;7371592;19;20003;-79
2023/04/17 03:42:31;;;;;;;54.33;31.63;;;;;;;;;;7369451;19;20739;-79
2023/04/17 03:44:56;;;;;;;52.75;30.45;;;;;;;;;;7372342;19;19999;-79
2023/04/17 03:47:21;;;;;;;52.30;31.77;;;;;;;;;;7372292;19;20404;-79
2023/04/17 03:49:46;;;;;;;54.77;31.23;;;;;;;;;;7369360;19;20676;-79
2023/04/17 03:52:11;;;;;;;53.87;30.97;;;;;;;;;;7369004;19;20247;-79
2023/04/17 03:54:37;;;;;;;52.93;30.20;;;;;;;;;;7369649;19;20523;-79
2023/04/17 03:57:02;;;;;;;56.95;31.45;;;;;;;;;;7372033;19;20310;-76
2023/04/17 03:59:28;;;;;;;56.25;31.90;;;;;;;;;;7370842;19;19995;-77
2023/04/17 04:01:54;;;;;;;56.38;31.73;;;;;;;;;;7354241;19;20030;-77
2023/04/17 04:04:19;;;;;;;56.90;32.00;;;;;;;;;;7360682;19;20023;-79
2023/04/17 04:06:46;;;;;;;55.20;32.10;;;;;;;;;;7373183;19;20333;-78
2023/04/17 04:09:11;;;;;;;53.13;29.75;;;;;;;;;;7359426;19;20278;-79
2023/04/17 04:11:36;;;;;;;53.90;30.63;;;;;;;;;;7368156;19;20067;-78
2023/04/17 04:14:01;;;;;;;56.57;29.73;;;;;;;;;;7371390;19;20002;-78
2023/04/17 04:16:26;;;;;;;52.07;29.73;;;;;;;;;;7366850;19;20760;-78
2023/04/17 04:18:51;;;;;;;51.97;29.43;;;;;;;;;;7357121;19;20240;-79
2023/04/17 04:21:17;;;;;;;54.88;31.17;;;;;;;;;;7365669;19;20543;-79
2023/04/17 04:23:44;;;;;;;52.30;31.20;;;;;;;;;;7365566;19;20022;-79
2023/04/17 04:26:10;;;;;;;56.22;32.60;;;;;;;;;;7366044;19;20025;-79
2023/04/17 04:28:36;;;;;;;53.63;30.02;;;;;;;;;;7367092;19;20435;-78
2023/04/17 04:31:03;;;;;;;55.97;32.05;;;;;;;;;;7371101;19;20133;-79
2023/04/17 04:33:28;;;;;;;55.33;31.73;;;;;;;;;;7362847;19;20025;-79
2023/04/17 04:35:55;;;;;;;54.78;29.67;;;;;;;;;;7364752;19;20014;-79
2023/04/17 04:38:28;;;;;;;52.33;30.45;;;;;;;;;;7369793;19;19999;-79
2023/04/17 04:41:00;;;;;;;54.10;30.08;;;;;;;;;;7372676;19;20002;-79
2023/04/17 04:43:28;;;;;;;54.80;30.20;;;;;;;;;;7366776;19;19998;-79
2023/04/17 04:45:53;;;;;;;51.05;29.38;;;;;;;;;;7359489;19;20578;-78
2023/04/17 04:48:18;;;;;;;48.40;28.65;;;;;;;;;;7352947;19;20002;-78
2023/04/17 04:50:44;;;;;;;51.15;30.55;;;;;;;;;;7366159;19;20409;-80
2023/04/17 04:53:09;;;;;;;56.33;31.92;;;;;;;;;;7366135;19;20165;-78
2023/04/17 04:55:34;;;;;;;51.33;31.53;;;;;;;;;;7364085;19;20533;-79
2023/04/17 04:57:59;;;;;;;56.93;31.60;;;;;;;;;;7370521;19;20263;-78
2023/04/17 05:00:25;;;;;;;55.38;33.28;;;;;;;;;;7365830;19;20251;-78
2023/04/17 05:02:50;;;;;;;57.40;32.83;;;;;;;;;;7365876;19;20267;-78
2023/04/17 05:05:15;;;;;;;56.55;34.20;;;;;;;;;;7357790;19;20105;-79
2023/04/17 05:07:40;;;;;;;60.58;36.60;;;;;;;;;;7368959;19;20236;-78
2023/04/17 05:10:06;;;;;;;53.22;33.50;;;;;;;;;;7362299;19;20018;-78
2023/04/17 05:12:31;;;;;;;53.75;34.17;;;;;;;;;;7367272;19;20082;-79
2023/04/17 05:14:57;;;;;;;49.67;32.97;;;;;;;;;;7369549;19;20018;-79
2023/04/17 05:17:22;;;;;;;53.90;34.13;;;;;;;;;;7360331;19;19998;-78
2023/04/17 05:19:47;;;;;;;50.57;32.23;;;;;;;;;;7364950;19;20254;-78
2023/04/17 05:22:12;;;;;;;43.20;29.60;;;;;;;;;;7359701;19;20247;-78
2023/04/17 05:24:37;;;;;;;42.50;27.83;;;;;;;;;;7369701;19;20239;-79
2023/04/17 05:27:02;;;;;;;38.87;26.57;;;;;;;;;;7369408;19;20574;-78
2023/04/17 05:29:29;;;;;;;40.10;26.63;;;;;;;;;;7364501;19;20247;-79
2023/04/17 05:31:54;;;;;;;38.47;25.27;;;;;;;;;;7369838;19;19999;-79
2023/04/17 05:34:19;;;;;;;36.78;24.30;;;;;;;;;;7362104;19;20014;-78
2023/04/17 05:36:45;;;;;;;35.93;23.20;;;;;;;;;;7366226;19;20491;-78
2023/04/17 05:39:10;;;;;;;31.27;21.33;;;;;;;;;;7367578;19;20391;-79
2023/04/17 05:41:35;;;;;;;29.53;19.77;;;;;;;;;;7368922;19;20007;-79
2023/04/17 05:44:00;;;;;;;30.35;21.25;;;;;;;;;;7369712;19;20255;-78
2023/04/17 05:46:25;;;;;;;38.50;24.67;;;;;;;;;;7367046;19;21536;-79
2023/04/17 05:48:51;;;;;;;36.17;25.10;;;;;;;;;;7360566;19;20027;-78
2023/04/17 05:51:16;;;;;;;40.77;26.80;;;;;;;;;;7366534;19;20078;-78
2023/04/17 05:53:43;;;;;;;41.80;26.70;;;;;;;;;;7371144;19;20997;-78
2023/04/17 05:56:08;;;;;;;41.60;26.60;;;;;;;;;;7366735;19;20286;-78
2023/04/17 05:58:34;;;;;;;39.53;26.07;;;;;;;;;;7358685;19;20004;-79
2023/04/17 06:01:01;;;;;;;39.45;26.40;;;;;;;;;;7359777;19;20262;-78
2023/04/17 06:03:26;;;;;;;40.92;25.92;;;;;;;;;;7367296;19;20141;-78
2023/04/17 06:05:51;;;;;;;41.88;25.48;;;;;;;;;;7362920;19;20327;-79
2023/04/17 06:08:16;;;;;;;44.35;27.60;;;;;;;;;;7367204;19;20006;-79
2023/04/17 06:10:44;;;;;;;39.88;26.15;;;;;;;;;;7369859;19;19994;-78
2023/04/17 06:13:09;;;;;;;43.58;27.77;;;;;;;;;;7368452;19;20002;-79
2023/04/17 06:15:34;;;;;;;39.70;26.70;;;;;;;;;;7365680;19;20001;-78
2023/04/17 06:17:59;;;;;;;40.28;26.98;;;;;;;;;;7360027;19;20266;-78
2023/04/17 06:20:25;;;;;;;40.70;26.93;;;;;;;;;;7361520;19;20321;-79
2023/04/17 06:22:50;;;;;;;45.40;29.27;;;;;;;;;;7367191;19;20255;-78
2023/04/17 06:25:15;;;;;;;45.60;30.58;;;;;;;;;;7366879;19;20014;-78
2023/04/17 06:27:40;;;;;;;46.67;31.40;;;;;;;;;;7364761;19;19999;-79
2023/04/17 06:30:06;;;;;;;48.22;31.10;;;;;;;;;;7366659;19;20002;-79
2023/04/17 06:32:31;;;;;;;52.55;33.80;;;;;;;;;;7367323;19;20117;-79
2023/04/17 06:34:56;;;;;;;49.95;32.38;;;;;;;;;;7362620;19;20006;-78
2023/04/17 06:37:21;;;;;;;51.30;32.33;;;;;;;;;;7364639;19;20003;-78
2023/04/17 06:39:46;;;;;;;53.38;32.88;;;;;;;;;;7363323;19;20370;-79
2023/04/17 06:42:12;;;;;;;53.83;33.60;;;;;;;;;;7359433;19;20106;-79
2023/04/17 06:44:37;;;;;;;55.25;34.45;;;;;;;;;;7354550;19;20266;-79
2023/04/17 06:47:03;;;;;;;53.83;33.67;;;;;;;;;;7335176;19;20844;-80
2023/04/17 06:49:30;;;;;;;51.63;33.67;;;;;;;;;;7355989;19;20073;-77
2023/04/17 06:51:55;;;;;;;55.58;35.85;;;;;;;;;;7354270;19;20016;-78
2023/04/17 06:54:20;;;;;;;55.97;34.08;;;;;;;;;;7357764;19;19999;-78
2023/04/17 06:56:47;;;;;;;50.13;33.50;;;;;;;;;;7357225;19;19999;-78
2023/04/17 06:59:12;;;;;;;51.22;32.33;;;;;;;;;;7339329;19;20254;-77
2023/04/17 07:01:39;;;;;;;53.87;32.20;;;;;;;;;;7353245;19;20545;-78
2023/04/17 07:04:04;;;;;;;46.72;30.73;;;;;;;;;;7363238;19;20251;-77
2023/04/17 07:06:32;;;;;;;40.95;26.40;;;;;;;;;;7351896;19;20439;-78
2023/04/17 07:08:57;;;;;;;43.85;28.38;;;;;;;;;;7361276;19;20010;-77
2023/04/17 07:11:22;;;;;;;35.65;22.92;;;;;;;;;;7356632;19;20037;-78
2023/04/17 07:13:48;;;;;;;36.75;23.38;;;;;;;;;;7359560;19;20099;-78
2023/04/17 07:16:13;;;;;;;32.60;21.80;;;;;;;;;;7360386;19;20794;-78
2023/04/17 07:18:38;;;;;;;28.90;20.33;;;;;;;;;;7351890;19;20242;-78
2023/04/17 07:21:03;;;;;;;27.43;19.00;;;;;;;;;;7362275;19;20731;-77
2023/04/17 07:23:28;;;;;;;29.73;19.63;;;;;;;;;;7361775;19;20243;-78
2023/04/17 07:25:53;;;;;;;26.20;17.47;;;;;;;;;;7369590;19;20843;-78
2023/04/17 07:28:19;;;;;;;22.95;14.88;;;;;;;;;;7367263;19;20434;-78
2023/04/17 07:30:44;;;;;;;22.45;15.98;;;;;;;;;;7369502;19;20007;-78
2023/04/17 07:33:10;;;;;;;23.10;17.08;;;;;;;;;;7372405;19;20479;-78
2023/04/17 07:35:35;;;;;;;31.67;20.35;;;;;;;;;;7366467;19;20002;-78
2023/04/17 07:38:02;;;;;;;42.60;25.40;;;;;;;;;;7372889;19;20442;-77
2023/04/17 07:40:27;;;;;;;42.55;28.20;;;;;;;;;;7366893;19;20347;-78
2023/04/17 07:42:55;;;;;;;46.80;29.40;;;;;;;;;;7370538;19;19995;-78
2023/04/17 07:45:20;;;;;;;51.88;31.88;;;;;;;;;;7369597;19;20351;-77
2023/04/17 07:47:45;;;;;;;54.47;35.13;;;;;;;;;;7359556;19;19998;-78
2023/04/17 07:50:10;;;;;;;64.57;39.50;;;;;;;;;;7360074;19;20256;-78
2023/04/17 07:52:35;;;;;;;60.30;38.83;;;;;;;;;;7371508;19;20736;-78
2023/04/17 07:55:01;;;;;;;75.20;45.42;;;;;;;;;;7369914;19;20228;-78
2023/04/17 07:57:26;;;;;;;76.57;46.88;;;;;;;;;;7369910;19;20111;-77
2023/04/17 07:59:55;;;;;;;79.85;49.70;;;;;;;;;;7366445;19;20372;-78
2023/04/17 08:02:20;;;;;;;79.45;49.72;;;;;;;;;;7357487;19;20712;-78
2023/04/17 08:04:45;;;;;;;83.45;52.80;;;;;;;;;;7358066;19;20003;-78
2023/04/17 08:07:11;;;;;;;81.63;53.00;;;;;;;;;;7365793;19;20014;-77
2023/04/17 08:09:37;;;;;;;86.18;54.05;;;;;;;;;;7369020;19;20021;-77
2023/04/17 08:12:02;;;;;;;86.35;52.10;;;;;;;;;;7348085;19;20022;-77
2023/04/17 08:14:27;;;;;;;85.20;54.38;;;;;;;;;;7369441;19;20002;-77
2023/04/17 08:16:52;;;;;;;87.43;53.63;;;;;;;;;;7368786;19;20151;-78
2023/04/17 08:19:18;;;;;;;83.80;53.00;;;;;;;;;;7361890;19;19995;-77
2023/04/17 08:21:43;;;;;;;87.82;54.85;;;;;;;;;;7369962;19;20932;-78
2023/04/17 08:24:08;;;;;;;88.30;54.42;;;;;;;;;;7363400;19;20116;-78
2023/04/17 08:26:34;;;;;;;90.22;54.65;;;;;;;;;;7366754;19;20259;-78
2023/04/17 08:29:03;;;;;;;91.05;55.28;;;;;;;;;;7365164;19;20020;-78
2023/04/17 08:31:28;;;;;;;84.53;54.60;;;;;;;;;;7367633;19;20523;-78
2023/04/17 08:33:54;;;;;;;84.23;54.20;;;;;;;;;;7360460;19;19999;-78
2023/04/17 08:36:19;;;;;;;88.00;53.97;;;;;;;;;;7367702;19;20278;-78
2023/04/17 08:38:46;;;;;;;83.85;54.20;;;;;;;;;;7370801;19;20003;-78
2023/04/17 08:41:12;;;;;;;91.15;55.97;;;;;;;;;;7368198;19;20042;-78
2023/04/17 08:43:38;;;;;;;89.90;57.03;;;;;;;;;;7365089;19;20010;-77
2023/04/17 08:46:04;;;;;;;86.78;54.95;;;;;;;;;;7371085;19;20473;-77
2023/04/17 08:48:29;;;;;;;84.32;54.28;;;;;;;;;;7364709;19;20107;-77
2023/04/17 08:50:54;;;;;;;82.85;54.47;;;;;;;;;;7366927;19;20009;-78
2023/04/17 08:53:19;;;;;;;81.25;51.60;;;;;;;;;;7368573;19;20078;-78
2023/04/17 08:55:45;;;;;;;76.15;51.72;;;;;;;;;;7369876;19;19991;-78
2023/04/17 08:58:11;;;;;;;77.82;51.33;;;;;;;;;;7365601;19;20017;-77
2023/04/17 09:00:38;;;;;;;79.32;52.05;;;;;;;;;;7368249;19;20028;-77
2023/04/17 09:03:04;;;;;;;73.50;50.08;;;;;;;;;;7366806;19;20033;-78
2023/04/17 09:05:32;;;;;;;79.00;52.97;;;;;;;;;;7367049;19;20438;-78
2023/04/17 09:08:28;;;;;;;77.25;51.55;;;;;;;;;;7370386;19;19999;-77
2023/04/17 09:10:53;;;;;;;71.40;49.72;;;;;;;;;;7370452;19;20945;-78
2023/04/17 09:13:23;;;;;;;72.43;51.40;;;;;;;;;;7364713;19;20074;-78
2023/04/17 09:16:04;;;;;;;75.38;50.55;;;;;;;;;;7365988;19;20801;-78
2023/04/17 09:18:30;;;;;;;75.95;50.65;;;;;;;;;;7368490;19;20022;-78
2023/04/17 09:20:57;;;;;;;83.25;52.97;;;;;;;;;;7363874;19;20014;-78
2023/04/17 09:23:23;;;;;;;73.18;50.30;;;;;;;;;;7366428;19;20110;-78
2023/04/17 09:26:06;;;;;;;83.70;54.80;;;;;;;;;;7368542;19;20143;-77
2023/04/17 09:28:34;;;;;;;78.82;52.67;;;;;;;;;;7367097;19;20006;-78
2023/04/17 09:31:02;;;;;;;79.85;53.08;;;;;;;;;;7365484;19;20398;-78
2023/04/17 09:33:27;;;;;;;76.85;53.20;;;;;;;;;;7367092;19;20546;-78
2023/04/17 09:35:52;;;;;;;80.32;52.83;;;;;;;;;;7363588;19;20286;-78
2023/04/17 09:38:34;;;;;;;80.85;52.67;;;;;;;;;;7369146;19;20606;-78
2023/04/17 09:40:59;;;;;;;79.20;53.03;;;;;;;;;;7368483;19;20124;-78
2023/04/17 09:43:39;;;;;;;76.93;51.13;;;;;;;;;;7365742;19;20181;-78
2023/04/17 09:46:04;;;;;;;78.13;50.20;;;;;;;;;;7364772;19;20259;-78
2023/04/17 09:48:29;;;;;;;67.87;48.77;;;;;;;;;;7365536;19;20005;-78
2023/04/17 09:50:55;;;;;;;65.47;46.03;;;;;;;;;;7361588;19;20719;-78
2023/04/17 09:53:20;;;;;;;63.08;45.13;;;;;;;;;;7367257;19;20011;-77
2023/04/17 09:55:46;;;;;;;63.50;44.15;;;;;;;;;;7366599;19;19998;-78
2023/04/17 09:58:12;;;;;;;60.65;42.63;;;;;;;;;;7365258;19;20006;-78
2023/04/17 10:00:39;;;;;;;67.18;46.03;;;;;;;;;;7366826;19;20015;-78
2023/04/17 10:03:05;;;;;;;67.78;44.35;;;;;;;;;;7363568;19;20474;-78
2023/04/17 10:05:31;;;;;;;62.95;43.83;;;;;;;;;;7361640;19;20050;-78
2023/04/17 10:07:56;;;;;;;57.67;41.85;;;;;;;;;;7369440;19;20395;-78
2023/04/17 10:10:29;;;;;;;58.22;41.42;;;;;;;;;;7367739;19;20005;-78
2023/04/17 10:12:59;;;;;;;61.13;41.45;;;;;;;;;;7366101;19;20049;-78
2023/04/17 10:15:25;;;;;;;56.40;38.60;;;;;;;;;;7366980;19;20434;-77
2023/04/17 10:17:51;;;;;;;52.28;38.42;;;;;;;;;;7365224;19;20002;-78
2023/04/17 10:20:16;;;;;;;51.47;37.25;;;;;;;;;;7362303;19;19999;-78
2023/04/17 10:22:53;;;;;;;50.70;35.50;;;;;;;;;;7360524;19;20026;-78
2023/04/17 10:25:19;;;;;;;51.33;36.45;;;;;;;;;;7367129;19;20762;-78
2023/04/17 10:27:46;;;;;;;47.97;34.95;;;;;;;;;;7361070;19;20557;-78
2023/04/17 10:30:12;;;;;;;50.58;36.58;;;;;;;;;;7362224;19;20002;-78
2023/04/17 10:32:37;;;;;;;50.97;37.33;;;;;;;;;;7366848;19;20037;-78
2023/04/17 10:35:23;;;;;;;47.40;35.38;;;;;;;;;;7367433;19;20015;-78
2023/04/17 10:37:51;;;;;;;50.03;33.20;;;;;;;;;;7365168;19;20009;-78
2023/04/17 10:40:23;;;;;;;45.67;33.33;;;;;;;;;;7365638;19;19998;-78
2023/04/17 10:43:03;;;;;;;49.42;32.90;;;;;;;;;;7362419;19;20074;-78
2023/04/17 10:45:48;;;;;;;39.78;28.90;;;;;;;;;;7365368;19;20066;-78
2023/04/17 10:48:20;;;;;;;38.05;29.13;;;;;;;;;;7366532;19;20297;-78
2023/04/17 10:50:46;;;;;;;40.50;29.00;;;;;;;;;;7362554;19;20005;-78
2023/04/17 10:53:31;;;;;;;39.60;27.75;;;;;;;;;;7365975;19;20311;-78
2023/04/17 10:55:56;;;;;;;40.25;27.08;;;;;;;;;;7365004;19;20074;-78
2023/04/17 10:58:21;;;;;;;34.90;25.20;;;;;;;;;;7363258;19;20003;-78
2023/04/17 11:00:50;;;;;;;38.90;26.80;;;;;;;;;;7365365;19;20102;-78
2023/04/17 11:03:15;;;;;;;35.58;24.63;;;;;;;;;;7369659;19;20011;-78
2023/04/17 11:05:44;;;;;;;31.73;22.63;;;;;;;;;;7368548;19;20002;-79
2023/04/17 11:08:09;;;;;;;27.48;20.42;;;;;;;;;;7367549;19;20474;-78
2023/04/17 11:10:36;;;;;;;29.05;20.42;;;;;;;;;;7370920;19;20006;-78
2023/04/17 11:13:01;;;;;;;25.83;18.02;;;;;;;;;;7371248;19;20036;-78
2023/04/17 11:15:27;;;;;;;24.88;16.98;;;;;;;;;;7358906;19;20040;-78
2023/04/17 11:17:53;;;;;;;23.52;15.23;;;;;;;;;;7346481;19;20004;-77
2023/04/17 11:20:22;;;;;;;21.92;13.45;;;;;;;;;;7363076;19;19995;-78
2023/04/17 11:22:47;;;;;;;19.40;12.90;;;;;;;;;;7359922;19;20013;-80
2023/04/17 11:25:22;;;;;;;18.17;12.68;;;;;;;;;;7369041;19;20055;-78
2023/04/17 11:27:54;;;;;;;17.70;11.98;;;;;;;;;;7368725;19;20062;-78
2023/04/17 11:30:23;;;;;;;19.73;12.68;;;;;;;;;;7368987;19;20017;-78
2023/04/17 11:32:48;;;;;;;20.27;13.73;;;;;;;;;;7370303;19;20085;-78
2023/04/17 11:35:14;;;;;;;22.27;14.23;;;;;;;;;;7365895;19;20422;-78
2023/04/17 11:37:59;;;;;;;23.08;14.93;;;;;;;;;;7370803;19;20247;-78
2023/04/17 11:40:24;;;;;;;23.98;15.27;;;;;;;;;;7372726;19;20136;-78
2023/04/17 11:42:50;;;;;;;25.90;18.75;;;;;;;;;;7368088;19;20014;-78
2023/04/17 11:45:17;;;;;;;29.47;20.67;;;;;;;;;;7372438;19;20015;-78
2023/04/17 11:47:45;;;;;;;31.95;21.65;;;;;;;;;;7358750;19;20701;-78
2023/04/17 11:50:13;;;;;;;35.53;21.67;;;;;;;;;;7356652;19;20010;-78
2023/04/17 11:52:38;;;;;;;32.33;22.30;;;;;;;;;;7369914;19;20014;-78
2023/04/17 11:55:07;;;;;;;32.27;23.50;;;;;;;;;;7372248;19;20019;-78
2023/04/17 11:57:39;;;;;;;33.50;24.92;;;;;;;;;;7357198;19;20572;-78
2023/04/17 12:00:14;;;;;;;38.80;25.27;;;;;;;;;;7368932;19;19995;-78
2023/04/17 12:02:39;;;;;;;35.38;24.88;;;;;;;;;;7366221;19;20482;-78
2023/04/17 12:05:13;;;;;;;35.23;24.43;;;;;;;;;;7363402;19;20098;-78
2023/04/17 12:07:39;;;;;;;31.92;24.23;;;;;;;;;;7370830;19;20402;-78
2023/04/17 12:10:04;;;;;;;31.33;23.35;;;;;;;;;;7369291;19;19994;-78
2023/04/17 12:12:29;;;;;;;31.17;22.77;;;;;;;;;;7365472;19;20586;-78
2023/04/17 12:14:55;;;;;;;34.93;23.03;;;;;;;;;;7366316;19;20093;-78
2023/04/17 12:17:20;;;;;;;33.05;24.30;;;;;;;;;;7366749;19;20238;-78
2023/04/17 12:19:45;;;;;;;32.73;23.80;;;;;;;;;;7363897;19;19998;-78
2023/04/17 12:22:10;;;;;;;30.17;22.23;;;;;;;;;;7370800;19;20232;-78
2023/04/17 12:24:36;;;;;;;31.83;22.70;;;;;;;;;;7369812;19;20014;-77
2023/04/17 12:27:01;;;;;;;32.10;20.98;;;;;;;;;;7367073;19;20002;-78
2023/04/17 12:29:26;;;;;;;30.80;21.33;;;;;;;;;;7363704;19;19999;-78
2023/04/17 12:31:51;;;;;;;32.50;21.10;;;;;;;;;;7368623;19;20260;-76
2023/04/17 12:34:16;;;;;;;29.43;20.83;;;;;;;;;;7365523;19;20708;-78
2023/04/17 12:36:41;;;;;;;31.43;22.03;;;;;;;;;;7357847;19;20266;-77
2023/04/17 12:39:07;;;;;;;32.65;23.65;;;;;;;;;;7364107;19;20058;-78
2023/04/17 12:41:32;;;;;;;33.77;23.23;;;;;;;;;;7367482;19;19999;-78
2023/04/17 12:44:00;;;;;;;32.20;22.53;;;;;;;;;;7368564;19;20565;-78
2023/04/17 12:46:25;;;;;;;33.50;23.25;;;;;;;;;;7351427;19;20030;-79
2023/04/17 12:48:57;;;;;;;28.65;20.52;;;;;;;;;;7362524;19;20546;-78
2023/04/17 12:51:22;;;;;;;31.55;19.75;;;;;;;;;;7368514;19;20118;-78
2023/04/17 12:53:47;;;;;;;27.80;20.00;;;;;;;;;;7366762;19;20467;-77
2023/04/17 12:56:12;;;;;;;27.77;19.30;;;;;;;;;;7368815;19;20339;-78
2023/04/17 12:58:38;;;;;;;29.30;19.00;;;;;;;;;;7363334;19;20023;-78
2023/04/17 13:01:03;;;;;;;28.17;19.80;;;;;;;;;;7366484;19;21651;-77
2023/04/17 13:03:28;;;;;;;26.92;19.83;;;;;;;;;;7365143;19;20748;-78
2023/04/17 13:05:53;;;;;;;28.13;20.50;;;;;;;;;;7348192;19;20014;-78
2023/04/17 13:08:18;;;;;;;28.10;19.30;;;;;;;;;;7365258;19;20010;-78
2023/04/17 13:10:43;;;;;;;27.17;19.30;;;;;;;;;;7366404;19;20244;-78
2023/04/17 13:13:09;;;;;;;28.45;19.63;;;;;;;;;;7362599;19;20002;-78
2023/04/17 13:15:34;;;;;;;30.92;20.40;;;;;;;;;;7362336;19;20114;-78
2023/04/17 13:18:00;;;;;;;25.85;18.60;;;;;;;;;;7367862;19;20025;-78
2023/04/17 13:20:26;;;;;;;25.60;18.27;;;;;;;;;;7360430;19;20013;-78
2023/04/17 13:22:51;;;;;;;24.45;17.58;;;;;;;;;;7345484;19;20006;-78
2023/04/17 13:25:16;;;;;;;26.75;18.05;;;;;;;;;;7362619;19;19999;-78
2023/04/17 13:27:42;;;;;;;27.27;18.08;;;;;;;;;;7357666;19;20106;-78
2023/04/17 13:30:07;;;;;;;28.20;18.77;;;;;;;;;;7352979;19;20420;-78
2023/04/17 13:32:33;;;;;;;26.25;18.23;;;;;;;;;;7360455;19;20030;-78
2023/04/17 13:34:58;;;;;;;29.30;19.10;;;;;;;;;;7354326;19;20003;-78
2023/04/17 13:37:24;;;;;;;27.83;18.30;;;;;;;;;;7362454;19;20190;-78
2023/04/17 13:39:49;;;;;;;30.92;19.33;;;;;;;;;;7355267;19;20021;-78
2023/04/17 13:42:15;;;;;;;31.43;19.70;;;;;;;;;;7363739;19;20391;-78
2023/04/17 13:44:40;;;;;;;30.20;20.67;;;;;;;;;;7363749;19;20236;-78
2023/04/17 13:47:06;;;;;;;30.10;20.30;;;;;;;;;;7361411;19;20010;-78
2023/04/17 13:49:31;;;;;;;32.08;22.50;;;;;;;;;;7360112;19;19999;-78
2023/04/17 13:51:57;;;;;;;30.88;22.80;;;;;;;;;;7362062;19;20001;-78
2023/04/17 13:54:22;;;;;;;32.85;22.70;;;;;;;;;;7365429;19;19995;-78
2023/04/17 13:56:47;;;;;;;32.50;22.50;;;;;;;;;;7358861;19;20055;-78
2023/04/17 13:59:12;;;;;;;37.33;23.50;;;;;;;;;;7359518;19;20043;-79
2023/04/17 14:01:37;;;;;;;29.90;22.67;;;;;;;;;;7353199;19;20028;-78
2023/04/17 14:04:02;;;;;;;30.23;21.30;;;;;;;;;;7356237;19;20247;-78
2023/04/17 14:06:30;;;;;;;32.67;21.67;;;;;;;;;;7361218;19;20243;-78
2023/04/17 14:08:55;;;;;;;32.30;22.60;;;;;;;;;;7359695;19;20131;-78
2023/04/17 14:11:20;;;;;;;31.70;20.73;;;;;;;;;;7360808;19;20435;-78